Aviation Digital Data Service (ADDS)

Output produced by METARs form (1645 UTC 20 January 2019)
found at http://www.aviationweather.gov/metar/data/
 
KTCC 201120Z 2012/2112 VRB06KT P6SM BKN250 
     FM201900 24011G20KT P6SM SCT250 
     FM210200 26011KT P6SM SCT250
       
KTCL 201132Z 2012/2112 33014G24KT P6SM OVC025 
     FM201500 33014G24KT P6SM BKN025 
     FM201700 33013G22KT P6SM SCT030 
     FM202200 33011KT P6SM SKC 
     FM210300 36004KT P6SM SKC
       
TAF AMD KTCM 201458Z 2014/2119 33009KT 9999 BKN007 BKN100 621004 QNH2993INS 
     TEMPO 2015/2018 2000 BR BKN005 
     BECMG 2017/2018 33009KT 9999 SCT015 BKN100 621004 QNH2995INS 
     BECMG 2102/2103 VRB06KT 9999 BKN020 620303 QNH3002INS 
     BECMG 2106/2107 VRB06KT 3200 BR SCT010 BKN020 QNH3008INS 
     BECMG 2109/2110 VRB04KT 0800 FG BKN005 OVC010 QNH3033INS TX10/2021Z
TN01/2105Z
       
KTCS 201141Z 2012/2112 32007KT P6SM FEW250 
     FM202000 19005KT P6SM FEW250 
     FM210500 27005KT P6SM FEW250
       
KTEB 201430Z 2015/2118 06010KT 6SM -RA BR BKN008 BKN015 
     FM201600 36010KT 6SM -RA BR OVC007 
     FM201800 31010KT P6SM SCT009 BKN015 
     FM202000 31015G23KT P6SM SCT015 BKN050 
     FM202200 32017G26KT P6SM BKN050 
     FM210000 32018G31KT P6SM FEW250 
     FM210900 31023G35KT P6SM BKN100
       
KTEX 201122Z 2012/2112 14007KT P6SM SKC 
     FM202100 24007KT P6SM FEW200 
     FM210100 18007KT P6SM FEW250 WS020/25030KT 
     FM210800 17009KT P6SM SCT080 BKN150 WS020/23045KT
       
TAF KTIK 201000Z 2010/2116 22006KT 9999 SKC QNH3026INS 
     BECMG 2018/2019 19012KT 9999 SKC QNH3012INS 
     BECMG 2102/2103 16006KT 9999 SKC QNH2993INS TX08/2022Z TNM08/2010Z
       
KTIX 201510Z 2015/2112 27017G27KT P6SM BKN040 
     FM202300 29011KT P6SM SKC 
     FM210500 32007KT P6SM SKC
       
KTLH 201120Z 2012/2112 30017G25KT P6SM OVC025 
     FM201700 31016G21KT P6SM OVC060 
     FM202000 32014KT P6SM SKC 
     FM210600 31004KT P6SM SKC
       
KTMB 201511Z 2015/2112 28014KT P6SM VCSH FEW015 BKN025 
     FM201600 28017KT P6SM SCT020 BKN025 
     FM210000 31010KT P6SM FEW100 SCT250
       
KTOI 201132Z 2012/2112 29013G26KT P6SM OVC025 
     FM201700 31015G25KT P6SM BKN035 
     FM202300 32011KT P6SM SKC 
     FM210400 33005KT P6SM SKC
       
KTOL 201132Z 2012/2112 34012G20KT P6SM SKC 
     FM201800 33012KT P6SM BKN040 
     FM210400 33007KT P6SM SKC
       
KTOP 201120Z 2012/2112 VRB04KT P6SM FEW250 
     FM201800 14006KT P6SM BKN170 
     FM202100 11006KT P6SM SCT025 BKN120
       
KTPA 201505Z 2015/2118 30015G25KT P6SM SCT030 BKN050 
     FM202100 31016G25KT P6SM SCT025 SCT250 
     FM210000 33008KT P6SM SCT250 
     FM211000 02006KT P6SM SKC
       
KTPH 201120Z 2012/2112 01007KT P6SM OVC200 
     FM201800 17010KT P6SM BKN200 
     FM210800 32015G25KT P6SM VCSH SCT035 BKN045 
     FM211000 32020G30KT 6SM -RASN SCT025 BKN040
       
KTRI 201120Z 2012/2112 26020G30KT P6SM -SHSN SCT010 OVC020 
     FM201500 28020G30KT P6SM SCT015 OVC030 
     FM202100 28012G24KT P6SM SCT030 BKN080
       
KTRK 201126Z 2012/2112 18012G22KT P6SM SCT035 SCT080 OVC180 
     FM201400 19014G24KT P6SM VCSH SCT030 BKN080 OVC180 
     FM201600 20016G26KT 6SM -SHRA SCT020 BKN030 OVC050 WS020/23040KT 
     FM202000 21016G28KT 3SM -RASN BKN010 OVC020 WS020/24045KT 
     FM210100 22014G22KT 1SM -SN BKN006 OVC010 
     FM210600 24009G16KT 1SM -SN OVC006
       
KTRM 201137Z 2012/2112 35004KT P6SM BKN250 
     FM211100 33008KT P6SM SCT200
       
KTTD 201630Z 2017/2112 VRB04KT P6SM -RA VCFG SCT005 OVC035 
     FM210100 VRB03KT P6SM -RA SCT015 BKN025 OVC040 
     FM210500 00000KT 2SM BR SCT002 BKN060
       
KTTN 201609Z 2016/2112 31012G22KT P6SM OVC035 
     TEMPO 2016/2018 BKN025 
     FM201800 29015G25KT P6SM BKN030 
     FM202000 31018G28KT P6SM BKN035
       
KTUL 201120Z 2012/2112 35005KT P6SM SCT250 
     FM201800 18007KT P6SM SKC 
     FM210000 15005KT P6SM SCT250
       
KTUP 201311Z 2013/2112 34010G20KT P6SM OVC020 
     FM201700 35012KT P6SM SCT020 
     FM202000 35010KT P6SM BKN250 
     FM210100 VRB05KT P6SM BKN090
       
KTUS 201137Z 2012/2112 14009KT P6SM BKN250 
     FM201900 VRB04KT P6SM BKN250 
     FM202200 35005KT P6SM BKN250 
     FM210300 23005KT P6SM SCT250 
     FM210700 15006KT P6SM SCT250
       
KTVC 201541Z 2016/2112 05012G20KT P6SM VCSH FEW015 BKN022 
     FM202300 02013KT P6SM VCSH BKN025 
     FM210200 04010G19KT P6SM VCSH BKN020 
     FM210400 06007KT P6SM BKN020
       
KTVL 201126Z 2012/2112 19014G26KT P6SM SCT035 SCT080 OVC180 
     FM201400 19014G26KT P6SM VCSH SCT030 BKN070 OVC180 
     FM201700 19014G26KT 6SM -SHRA SCT020 BKN030 OVC050 WS020/24045KT 
     FM202100 20016G30KT 3SM -RASN BKN010 OVC020 WS020/24045KT 
     FM210200 19016G24KT 2SM -SN BKN008 OVC012 
     FM210500 19011G19KT 1SM -SN OVC006
       
KTWF 201419Z 2014/2112 18011KT P6SM BKN070 
     FM210100 19008KT P6SM -SHRA OVC025 
     TEMPO 2101/2103 27025G40KT 1SM -SHRASN BKN005 OVC020 
     FM211000 23010KT 2SM -SHSN OVC004
       
KTXK 201206Z 2012/2112 31005KT P6SM FEW250 
     FM210000 VRB03KT P6SM SKC
       
KTYR 201205Z 2012/2112 33006KT P6SM FEW250 
     FM210000 VRB03KT P6SM SKC 
     FM210900 16007KT P6SM SKC
       
KTYS 201120Z 2012/2112 28012G24KT P6SM OVC025 
     FM201800 32010G20KT P6SM SCT050 
     FM210400 01010KT P6SM BKN080